Terminal Aerodrome Forecast
Issued by NWS Sterling, VA

Home | Current Version | Previous Version | Text Only | Print | Product List | Glossary On
Versions: 1 2 3 4 5 6 7 8 9 10 11 12 13 14 15 16 17 18 19 20
178
FTUS41 KLWX 081740
TAFDCA
TAF
KDCA 081740Z 0818/0918 10004KT P6SM FEW050 BKN250
     FM090000 12006KT 5SM -RA OVC025
     FM090500 11006KT 3SM -RASN OVC015
     FM090900 09006KT 1SM -SN OVC008
     FM091200 04006KT 1SM -SN OVC008
     FM091700 33006KT 2SM -RASN OVC015=

USA.gov is the U.S. government's official web portal to all federal, state and local government web resources and services.